Time;durP1;ratioP1;P1;durP2;ratioP2;P2;SDS_P1;SDS_P2;PMS_P1;PMS_P2;Temp;Humidity;BMP_temperature;BMP_pressure;BME280_temperature;BME280_humidity;BME280_pressure;Samples;Min_cycle;Max_cycle;Signal;HPM_P1;HPM_P2
2021/09/22 00:01:37;;;;;;;3.76;2.41;;;;;;;8.14;84.73;100587.00;2354741;68;20277;-80
2021/09/22 00:04:40;;;;;;;3.14;2.26;;;;;;;8.09;84.70;100590.31;2351766;68;20978;-79
2021/09/22 00:07:44;;;;;;;3.14;2.84;;;;;;;8.05;84.62;100596.22;2358757;68;20283;-79
2021/09/22 00:10:46;;;;;;;2.83;2.42;;;;;;;7.98;84.78;100592.63;2355021;68;20103;-80
2021/09/22 00:13:49;;;;;;;3.11;2.61;;;;;;;7.98;84.86;100595.19;2348853;68;20240;-80
2021/09/22 00:16:52;;;;;;;3.08;2.70;;;;;;;7.96;84.97;100590.84;2343962;68;20255;-80
2021/09/22 00:19:54;;;;;;;2.97;2.71;;;;;;;7.95;84.96;100591.66;2348848;68;20255;-80
2021/09/22 00:22:58;;;;;;;3.58;2.70;;;;;;;7.95;85.12;100592.53;2361457;68;20295;-80
2021/09/22 00:26:00;;;;;;;2.61;2.36;;;;;;;7.92;85.09;100587.31;2344690;68;20296;-80
2021/09/22 00:29:03;;;;;;;3.09;2.79;;;;;;;7.89;84.91;100587.19;2344243;68;20143;-81
2021/09/22 00:32:06;;;;;;;2.50;2.20;;;;;;;7.87;84.52;100583.69;2343360;66;37458;-79
2021/09/22 00:35:09;;;;;;;3.09;2.21;;;;;;;7.80;84.60;100582.69;2343395;68;20243;-79
2021/09/22 00:38:11;;;;;;;2.39;2.16;;;;;;;7.78;84.85;100580.91;2347109;68;20240;-80
2021/09/22 00:41:14;;;;;;;2.74;2.16;;;;;;;7.74;84.87;100582.53;2349243;68;20288;-81
2021/09/22 00:44:16;;;;;;;2.69;2.15;;;;;;;7.72;84.92;100576.44;2348299;68;20303;-80
2021/09/22 00:47:20;;;;;;;2.50;2.30;;;;;;;7.72;84.90;100572.97;2354136;66;41148;-80
2021/09/22 00:50:22;;;;;;;3.04;2.20;;;;;;;7.71;84.89;100574.66;2345752;68;20244;-80
2021/09/22 00:53:25;;;;;;;2.61;2.16;;;;;;;7.63;84.62;100576.19;2349975;68;20288;-79
2021/09/22 00:56:28;;;;;;;6.39;3.94;;;;;;;7.58;84.84;100570.91;2342235;68;20303;-80
2021/09/22 00:59:31;;;;;;;2.83;2.45;;;;;;;7.47;84.84;100571.44;2344349;68;20247;-80
2021/09/22 01:02:33;;;;;;;2.40;2.22;;;;;;;7.48;85.32;100576.66;2352257;65;37808;-80
2021/09/22 01:05:38;;;;;;;2.60;2.40;;;;;;;7.50;85.39;100567.22;2345616;68;20260;-80
2021/09/22 01:08:41;;;;;;;3.19;2.30;;;;;;;7.51;85.57;100568.09;2347595;68;20243;-80
2021/09/22 01:11:43;;;;;;;2.97;2.54;;;;;;;7.53;85.45;100571.59;2349792;68;20287;-79
2021/09/22 01:14:46;;;;;;;3.64;2.60;;;;;;;7.51;85.29;100570.69;2348069;68;20292;-80
2021/09/22 01:22:04;;;;;;;2.36;2.16;;;;;;;7.46;85.25;100564.53;2344519;68;20406;-80
2021/09/22 01:25:10;;;;;;;3.58;2.64;;;;;;;7.40;85.21;100573.00;2346593;68;20286;-79
2021/09/22 01:28:17;;;;;;;3.88;2.26;;;;;;;7.34;85.25;100575.41;2348178;68;20365;-80
2021/09/22 01:31:19;;;;;;;2.54;2.33;;;;;;;7.33;85.32;100570.19;2348238;68;20280;-81
2021/09/22 01:34:22;;;;;;;3.13;2.59;;;;;;;7.30;85.37;100583.03;2347601;68;20243;-79
2021/09/22 01:37:25;;;;;;;4.41;2.50;;;;;;;7.29;85.44;100579.56;2354189;68;20418;-80
2021/09/22 01:40:27;;;;;;;4.55;1.86;;;;;;;7.26;85.54;100574.31;2348669;68;20263;-81
2021/09/22 01:43:31;;;;;;;2.29;2.10;;;;;;;7.25;85.73;100581.19;2358688;68;20300;-81
2021/09/22 01:46:34;;;;;;;2.61;1.85;;;;;;;7.25;85.77;100573.44;2351627;68;20314;-79
2021/09/22 01:49:37;;;;;;;2.67;2.40;;;;;;;7.24;85.72;100561.38;2346018;68;20236;-80
2021/09/22 01:52:42;;;;;;;2.36;2.13;;;;;;;7.22;85.62;100564.75;2351992;68;20295;-79
2021/09/22 01:55:45;;;;;;;2.41;2.21;;;;;;;7.17;85.61;100572.34;2350971;68;20288;-79
2021/09/22 01:58:47;;;;;;;4.90;2.42;;;;;;;7.15;85.62;100567.97;2341670;68;20367;-79
2021/09/22 02:01:50;;;;;;;3.42;2.29;;;;;;;7.09;85.41;100558.34;2348086;68;20243;-79
2021/09/22 02:04:53;;;;;;;3.08;2.05;;;;;;;7.04;85.51;100559.94;2348944;68;20419;-80
2021/09/22 02:07:56;;;;;;;2.54;2.34;;;;;;;7.08;85.66;100563.47;2344731;68;20278;-80
2021/09/22 02:10:58;;;;;;;3.03;1.95;;;;;;;7.07;85.75;100556.56;2350655;68;20342;-79
2021/09/22 02:14:01;;;;;;;3.16;2.20;;;;;;;7.06;85.66;100567.72;2346387;68;20268;-80
2021/09/22 02:17:03;;;;;;;3.10;2.10;;;;;;;7.02;85.76;100558.16;2358668;66;23093;-78
2021/09/22 02:20:07;;;;;;;2.29;2.09;;;;;;;7.01;85.83;100559.84;2343577;68;20235;-79
2021/09/22 02:23:10;;;;;;;2.55;2.35;;;;;;;6.98;85.89;100557.16;2353908;68;20227;-80
2021/09/22 02:26:12;;;;;;;2.54;2.34;;;;;;;6.95;85.95;100560.53;2340927;68;20288;-80
2021/09/22 02:29:15;;;;;;;2.28;2.08;;;;;;;6.94;85.95;100560.50;2349645;68;20243;-80
2021/09/22 02:32:18;;;;;;;4.10;2.26;;;;;;;6.92;85.83;100559.56;2346701;65;39920;-80
2021/09/22 02:35:20;;;;;;;3.91;2.29;;;;;;;6.89;85.81;100559.50;2359027;68;20306;-79
2021/09/22 02:38:23;;;;;;;2.39;1.94;;;;;;;6.86;85.73;100557.69;2342761;68;20296;-82
2021/09/22 02:41:26;;;;;;;2.53;2.17;;;;;;;6.84;85.75;100553.31;2348556;68;20235;-80
2021/09/22 02:44:28;;;;;;;2.25;2.03;;;;;;;6.82;85.82;100548.13;2343084;68;20243;-80
2021/09/22 02:47:31;;;;;;;2.86;2.36;;;;;;;6.78;85.48;100541.09;2352350;65;36306;-81
2021/09/22 02:50:33;;;;;;;2.95;2.28;;;;;;;6.73;85.72;100539.22;2350591;68;20288;-79
2021/09/22 02:53:36;;;;;;;2.49;1.86;;;;;;;6.71;85.95;100546.03;2343028;68;20322;-80
2021/09/22 02:56:38;;;;;;;3.40;1.99;;;;;;;6.72;86.13;100545.22;2348191;68;20255;-80
2021/09/22 02:59:41;;;;;;;1.75;1.64;;;;;;;6.72;86.09;100547.78;2351729;68;20257;-80
2021/09/22 03:02:44;;;;;;;2.47;1.95;;;;;;;6.71;85.86;100546.91;2348881;65;49043;-79
2021/09/22 03:05:47;;;;;;;5.51;2.13;;;;;;;6.70;85.76;100546.88;2351828;68;20252;-79
2021/09/22 03:08:49;;;;;;;2.28;2.08;;;;;;;6.69;85.68;100551.16;2349337;68;20235;-80
2021/09/22 03:11:53;;;;;;;3.14;1.88;;;;;;;6.65;85.77;100550.19;2343765;68;20273;-80
2021/09/22 03:14:56;;;;;;;2.61;1.98;;;;;;;6.63;85.92;100550.97;2350345;68;20265;-79
2021/09/22 03:17:59;;;;;;;2.17;1.95;;;;;;;6.62;85.95;100542.34;2341881;66;27081;-80
2021/09/22 03:21:03;;;;;;;2.63;2.17;;;;;;;6.62;86.09;100539.75;2345449;68;20333;-79
2021/09/22 03:24:06;;;;;;;2.88;2.24;;;;;;;6.60;86.11;100543.13;2346792;68;20267;-80
2021/09/22 04:00:40;;;;;;;3.55;2.01;;;;;;;6.38;86.51;100525.25;2333503;68;20167;-82
2021/09/22 05:42:11;;;;;;;2.10;1.60;;;;;;;6.02;86.80;100555.09;2303515;68;20355;31
2021/09/22 05:45:14;;;;;;;2.22;1.81;;;;;;;5.96;86.87;100557.47;2325328;69;20298;-79
2021/09/22 05:48:18;;;;;;;2.34;2.04;;;;;;;5.98;87.18;100553.25;2325347;69;20102;-78
2021/09/22 05:51:21;;;;;;;2.13;1.92;;;;;;;6.02;87.32;100559.38;2324721;69;20362;-80
2021/09/22 05:54:24;;;;;;;3.15;2.03;;;;;;;6.10;87.46;100554.44;2317613;69;20243;-80
2021/09/22 05:57:26;;;;;;;2.06;1.86;;;;;;;6.16;87.47;100549.50;2320622;69;20339;-80
2021/09/22 06:00:29;;;;;;;3.51;2.15;;;;;;;6.25;87.38;100552.38;2323610;69;20302;-80
2021/09/22 06:03:34;;;;;;;2.69;1.80;;;;;;;6.32;87.33;100536.28;2326784;69;20346;-79
2021/09/22 06:06:37;;;;;;;2.38;2.10;;;;;;;6.40;87.24;100529.63;2322929;69;20247;-80
2021/09/22 06:09:39;;;;;;;4.49;2.28;;;;;;;6.46;87.15;100528.94;2329473;69;20287;-80
2021/09/22 06:12:42;;;;;;;2.39;2.05;;;;;;;6.56;87.10;100520.66;2323693;69;20303;-80
2021/09/22 06:15:45;;;;;;;3.14;2.09;;;;;;;6.63;87.07;100528.63;2324336;69;20349;-79
2021/09/22 06:18:47;;;;;;;2.04;1.91;;;;;;;6.71;86.70;100522.81;2321224;69;20384;-80
2021/09/22 06:21:50;;;;;;;2.72;2.25;;;;;;;6.77;86.49;100526.44;2322700;69;20286;-80
2021/09/22 06:25:12;;;;;;;2.97;2.22;;;;;;;6.84;86.54;100530.09;2320523;69;20327;-80
2021/09/22 06:28:15;;;;;;;3.59;1.89;;;;;;;7.00;86.58;100532.25;2323590;69;20287;-80
2021/09/22 06:31:18;;;;;;;2.99;2.03;;;;;;;7.13;86.21;100536.94;2319297;69;20250;-81
2021/09/22 06:34:21;;;;;;;2.29;2.05;;;;;;;7.32;86.12;100533.16;2323133;69;20230;-81
2021/09/22 06:37:24;;;;;;;2.35;1.90;;;;;;;7.65;85.30;100540.03;2321251;69;20300;-80
2021/09/22 06:40:26;;;;;;;2.22;2.00;;;;;;;7.83;84.55;100543.97;2327651;69;20282;-80
2021/09/22 06:43:29;;;;;;;2.45;2.20;;;;;;;7.94;84.57;100540.78;2324373;69;20298;-80
2021/09/22 06:46:32;;;;;;;5.09;2.20;;;;;;;8.12;84.47;100536.94;2342875;69;20324;-81
2021/09/22 06:49:35;;;;;;;2.39;1.88;;;;;;;8.33;84.22;100536.56;2331231;69;20272;-80
2021/09/22 06:52:37;;;;;;;3.14;2.00;;;;;;;8.62;83.91;100539.84;2328301;69;20281;-80
2021/09/22 06:55:40;;;;;;;1.98;1.85;;;;;;;8.95;83.58;100534.47;2330524;69;20104;-80
2021/09/22 06:58:42;;;;;;;4.00;1.88;;;;;;;9.32;82.76;100525.69;2343040;69;20126;-81
2021/09/22 07:01:45;;;;;;;3.85;2.50;;;;;;;9.74;81.70;100531.66;2333485;69;20142;-79
2021/09/22 07:04:48;;;;;;;3.36;3.01;;;;;;;10.15;80.65;100528.00;2340281;69;20121;-81
2021/09/22 07:07:51;;;;;;;6.06;3.04;;;;;;;10.58;79.34;100529.53;2348579;69;20168;-80
2021/09/22 07:10:53;;;;;;;6.13;3.38;;;;;;;11.07;78.11;100537.09;2329203;69;20175;-80
2021/09/22 07:13:56;;;;;;;10.73;3.47;;;;;;;11.52;76.87;100538.47;2336533;69;20180;-79
2021/09/22 07:16:59;;;;;;;7.72;4.41;;;;;;;11.93;75.66;100537.16;2344394;69;20146;-81
2021/09/22 07:20:03;;;;;;;6.96;3.97;;;;;;;12.30;74.33;100535.69;2339097;69;20138;-80
2021/09/22 07:23:06;;;;;;;8.31;3.79;;;;;;;12.67;72.80;100538.53;2334487;69;20121;-80
2021/09/22 07:26:08;;;;;;;9.79;4.36;;;;;;;13.02;71.65;100538.72;2338399;68;20213;-80
2021/09/22 07:29:11;;;;;;;7.96;3.51;;;;;;;13.35;70.45;100545.81;2338068;68;20122;-80
2021/09/22 07:32:14;;;;;;;6.03;2.76;;;;;;;13.63;68.80;100540.63;2337924;66;63254;-81
2021/09/22 07:35:18;;;;;;;8.16;3.45;;;;;;;13.89;67.69;100557.22;2330402;69;20101;-79
2021/09/22 07:38:20;;;;;;;6.94;3.69;;;;;;;14.13;66.81;100556.34;2332450;69;20142;-80
2021/09/22 07:41:23;;;;;;;8.56;3.94;;;;;;;14.33;66.12;100548.50;2332308;69;20132;-80
2021/09/22 07:44:26;;;;;;;8.20;3.61;;;;;;;14.58;65.36;100552.88;2330138;69;20126;-81
2021/09/22 07:47:29;;;;;;;5.30;2.86;;;;;;;14.79;64.24;100544.97;2335535;66;44793;-80
2021/09/22 07:50:34;;;;;;;4.11;1.96;;;;;;;15.02;63.99;100547.50;2347413;69;20117;-80
2021/09/22 07:53:37;;;;;;;3.13;1.90;;;;;;;15.22;62.89;100549.16;2330019;69;20149;-80
2021/09/22 07:56:42;;;;;;;3.08;1.54;;;;;;;15.42;61.94;100548.16;2330809;69;20130;-81
2021/09/22 07:59:48;;;;;;;3.78;1.63;;;;;;;15.57;61.50;100546.34;2340752;69;20123;-80
2021/09/22 08:41:19;;;;;;;3.95;1.42;;;;;;;18.05;51.73;100579.53;2335371;68;20135;-82
2021/09/22 08:44:39;;;;;;;2.99;1.15;;;;;;;18.25;51.34;100566.06;2353799;68;20099;-82
2021/09/22 08:52:19;;;;;;;5.67;1.21;;;;;;;18.60;49.66;100576.84;2338551;68;20209;-82
2021/09/22 09:05:53;;;;;;;1.88;1.21;;;;;;;18.97;48.67;100586.72;2359005;68;20285;-82
2021/09/22 09:10:21;;;;;;;2.95;1.30;;;;;;;19.01;47.88;100578.72;2358114;68;20276;-82
2021/09/22 09:13:56;;;;;;;1.41;1.13;;;;;;;19.13;47.08;100576.75;2352236;68;20340;-82
2021/09/22 09:17:50;;;;;;;2.60;1.34;;;;;;;19.25;47.93;100573.88;2356530;68;20091;-82
2021/09/22 09:21:28;;;;;;;1.90;1.14;;;;;;;19.28;47.17;100568.53;2369859;68;20185;-82
2021/09/22 09:24:50;;;;;;;2.94;1.36;;;;;;;19.31;46.92;100574.59;2364406;68;20159;-82
2021/09/22 09:28:31;;;;;;;1.92;1.19;;;;;;;19.22;46.29;100574.81;2345656;68;20245;-83
2021/09/22 09:31:47;;;;;;;3.11;1.67;;;;;;;19.27;46.52;100574.69;2353343;68;20092;-82
2021/09/22 09:35:28;;;;;;;1.61;1.29;;;;;;;19.32;45.83;100578.09;2355725;68;20131;-82
2021/09/22 09:39:58;;;;;;;1.44;1.16;;;;;;;19.45;45.62;100576.94;2347702;68;20197;-81
2021/09/22 09:43:08;;;;;;;3.59;1.33;;;;;;;19.59;45.27;100564.38;2338317;68;20099;-81
2021/09/22 09:47:12;;;;;;;2.14;1.26;;;;;;;19.63;44.79;100562.53;2341013;68;20170;-82
2021/09/22 09:50:37;;;;;;;1.01;1.00;;;;;;;19.68;44.87;100560.63;2356660;68;20175;-82
2021/09/22 09:55:09;;;;;;;1.24;0.93;;;;;;;19.90;44.90;100563.63;2356165;68;20271;-81
2021/09/22 09:59:23;;;;;;;;;;;;;;;20.08;44.37;100550.00;2337834;68;20174;-81
2021/09/22 10:16:25;;;;;;;1.64;1.10;;;;;;;20.42;43.85;100536.84;2331781;68;997853;-80
2021/09/22 10:19:30;;;;;;;2.03;1.10;;;;;;;20.32;43.65;100538.00;2345043;68;20100;-79
2021/09/22 10:23:16;;;;;;;1.81;0.81;;;;;;;20.28;43.90;100532.81;2362125;68;20121;-81
2021/09/22 10:26:55;;;;;;;2.47;1.09;;;;;;;20.38;44.42;100526.41;2347049;68;20091;-81
2021/09/22 10:30:39;;;;;;;1.39;1.10;;;;;;;20.37;44.32;100528.16;2348528;68;20194;-81
2021/09/22 10:34:46;;;;;;;2.45;1.06;;;;;;;20.52;44.91;100519.88;2350915;68;20171;-81
2021/09/22 10:38:59;;;;;;;2.03;0.79;;;;;;;20.68;44.18;100512.41;2336002;68;20107;-81
2021/09/22 10:42:38;;;;;;;1.23;1.00;;;;;;;20.69;43.30;100515.91;2345326;68;20320;-81
2021/09/22 10:46:54;;;;;;;2.50;0.86;;;;;;;20.68;43.79;100501.84;2353014;68;20254;-81
2021/09/22 10:50:56;;;;;;;2.19;0.74;;;;;;;20.76;44.00;100499.00;2337521;68;20111;-81
2021/09/22 10:55:16;;;;;;;2.26;0.91;;;;;;;20.93;43.64;100499.38;2351521;68;20178;-82
2021/09/22 10:59:38;;;;;;;1.52;0.99;;;;;;;21.16;43.84;100498.69;2336268;68;20143;-81
2021/09/22 11:03:53;;;;;;;1.11;0.68;;;;;;;21.33;43.48;100491.13;2333824;68;20150;-81
2021/09/22 11:08:08;;;;;;;1.79;0.80;;;;;;;21.52;42.75;100480.84;2332218;68;20285;-81
2021/09/22 11:11:55;;;;;;;1.52;0.76;;;;;;;21.71;42.61;100482.00;2327759;68;20254;-80
2021/09/22 11:15:09;;;;;;;1.26;0.80;;;;;;;21.68;41.82;100463.59;2330471;68;20158;-80
2021/09/22 11:18:25;;;;;;;3.49;0.90;;;;;;;21.48;41.72;100467.78;2330855;68;20252;-80
2021/09/22 11:22:04;;;;;;;4.13;0.83;;;;;;;21.36;42.08;100467.28;2329324;68;20151;-80
2021/09/22 11:25:11;;;;;;;1.60;0.85;;;;;;;21.25;42.09;100466.75;2328429;68;20186;-80
2021/09/22 11:28:38;;;;;;;1.56;0.90;;;;;;;21.18;42.61;100453.72;2328694;68;20173;-80
2021/09/22 11:31:47;;;;;;;3.14;0.81;;;;;;;21.21;42.67;100451.88;2329510;68;20176;-80
2021/09/22 11:35:21;;;;;;;1.33;0.74;;;;;;;21.25;42.60;100448.25;2330168;68;21113;-80
2021/09/22 11:38:32;;;;;;;2.46;0.60;;;;;;;21.28;42.11;100440.22;2314857;68;20687;-79
2021/09/22 11:41:53;;;;;;;1.63;0.70;;;;;;;21.31;42.68;100452.47;2328902;68;20181;-80
2021/09/22 11:45:12;;;;;;;0.91;0.70;;;;;;;21.26;42.12;100449.13;2328016;68;20207;-80
2021/09/22 11:48:23;;;;;;;0.52;0.50;;;;;;;21.22;42.60;100450.09;2315652;68;984392;-80
2021/09/22 11:51:26;;;;;;;0.68;0.50;;;;;;;21.18;42.41;100449.31;2328407;68;20215;-80
2021/09/22 11:54:29;;;;;;;0.63;0.50;;;;;;;21.17;42.16;100446.72;2328229;68;20252;-79
2021/09/22 11:57:32;;;;;;;0.49;0.40;;;;;;;21.17;41.94;100444.06;2327594;68;20179;-79
2021/09/22 12:00:36;;;;;;;0.74;0.44;;;;;;;21.27;42.35;100441.16;2325917;65;25229;-79
2021/09/22 12:03:39;;;;;;;1.46;0.50;;;;;;;21.34;42.45;100432.09;2329005;68;20297;-79
2021/09/22 12:06:44;;;;;;;0.50;0.50;;;;;;;21.37;42.26;100425.88;2327431;68;20257;-80
2021/09/22 12:09:48;;;;;;;1.35;0.50;;;;;;;21.41;41.39;100422.22;2326871;68;20147;-79
2021/09/22 12:12:52;;;;;;;0.54;0.50;;;;;;;21.40;41.38;100410.78;2322310;68;20163;-79
2021/09/22 12:15:57;;;;;;;2.10;0.47;;;;;;;21.32;40.37;100411.94;2325529;65;23745;-79
2021/09/22 12:19:00;;;;;;;0.70;0.60;;;;;;;21.31;41.60;100420.78;2322910;68;20706;-80
2021/09/22 12:22:03;;;;;;;2.54;0.70;;;;;;;21.37;42.18;100410.88;2327670;68;20618;-79
2021/09/22 12:25:08;;;;;;;0.60;0.56;;;;;;;21.42;41.55;100408.94;2328387;68;20200;-79
2021/09/22 12:28:21;;;;;;;2.11;0.75;;;;;;;21.48;41.68;100404.38;2328219;68;20155;-80
2021/09/22 12:31:24;;;;;;;1.33;0.54;;;;;;;21.50;41.58;100403.41;2326082;68;20166;-79
2021/09/22 12:34:27;;;;;;;0.71;0.40;;;;;;;21.56;41.94;100399.72;2328322;68;20245;-80
2021/09/22 12:37:36;;;;;;;1.35;0.56;;;;;;;21.57;41.56;100398.78;2331142;68;20131;-80
2021/09/22 12:40:41;;;;;;;1.33;0.50;;;;;;;21.53;41.83;100389.22;2328554;68;20167;-80
2021/09/22 12:43:47;;;;;;;0.50;0.50;;;;;;;21.50;41.99;100382.25;2329404;68;20193;-79
2021/09/22 12:47:34;;;;;;;0.96;0.51;;;;;;;21.44;41.90;100381.59;2319214;68;998457;-80
2021/09/22 12:50:42;;;;;;;0.47;0.47;;;;;;;21.36;41.90;100372.16;2324570;68;20155;-78
2021/09/22 12:53:47;;;;;;;1.40;0.60;;;;;;;21.32;41.94;100377.59;2326919;68;20674;-79
2021/09/22 12:57:10;;;;;;;3.29;0.50;;;;;;;21.31;42.69;100366.16;2328535;68;20254;-79
2021/09/22 13:00:35;;;;;;;0.50;0.40;;;;;;;21.29;42.74;100367.13;2324249;68;21000;-79
2021/09/22 13:03:44;;;;;;;1.95;0.60;;;;;;;21.23;42.51;100362.00;2328684;68;21042;-78
2021/09/22 13:06:50;;;;;;;3.72;0.60;;;;;;;21.18;42.47;100350.72;2325218;68;20351;-78
2021/09/22 13:10:01;;;;;;;5.53;0.70;;;;;;;21.24;42.65;100350.53;2327146;68;20208;-78
2021/09/22 13:13:15;;;;;;;1.69;0.50;;;;;;;21.32;43.26;100343.22;2326500;68;20146;-78
2021/09/22 13:16:25;;;;;;;0.47;0.47;;;;;;;21.31;42.60;100342.38;2323409;66;22367;-78
2021/09/22 13:19:30;;;;;;;2.86;0.40;;;;;;;21.34;42.20;100333.47;2326218;68;20210;-78
2021/09/22 13:22:33;;;;;;;1.74;0.50;;;;;;;21.36;42.30;100326.34;2326051;68;20147;-78
2021/09/22 13:25:35;;;;;;;3.39;0.50;;;;;;;21.40;42.52;100320.94;2324985;68;20166;-78
2021/09/22 13:28:38;;;;;;;1.23;0.56;;;;;;;21.39;41.72;100310.44;2325038;68;20223;-78
2021/09/22 13:31:47;;;;;;;0.82;0.49;;;;;;;21.39;42.86;100326.28;2324073;66;20496;-78
2021/09/22 13:34:49;;;;;;;1.86;0.50;;;;;;;21.34;42.71;100313.19;2325942;68;20470;-77
2021/09/22 13:37:52;;;;;;;1.24;0.55;;;;;;;21.25;42.64;100310.88;2326441;68;20169;-78
2021/09/22 13:40:55;;;;;;;1.10;0.50;;;;;;;21.10;42.98;100311.34;2326051;68;20243;-78
2021/09/22 13:44:00;;;;;;;0.91;0.45;;;;;;;21.08;43.80;100307.91;2325960;68;20726;-78
2021/09/22 13:47:03;;;;;;;1.65;0.50;;;;;;;21.07;43.80;100307.03;2323275;66;20212;-78
2021/09/22 13:50:06;;;;;;;1.64;0.46;;;;;;;21.03;43.05;100308.06;2326460;68;20186;-78
2021/09/22 13:53:09;;;;;;;1.01;0.50;;;;;;;21.01;43.37;100304.59;2326515;68;20701;-78
2021/09/22 13:56:13;;;;;;;0.43;0.40;;;;;;;20.99;43.70;100297.63;2324193;68;20179;-78
2021/09/22 13:59:16;;;;;;;0.50;0.50;;;;;;;21.00;44.07;100297.56;2325116;68;20174;-79
2021/09/22 14:02:18;;;;;;;1.39;0.60;;;;;;;20.98;44.00;100299.41;2321492;66;20192;-77
2021/09/22 14:05:22;;;;;;;1.02;0.56;;;;;;;20.98;43.93;100296.75;2325190;68;20190;-78
2021/09/22 14:08:27;;;;;;;2.89;0.68;;;;;;;21.00;43.99;100296.72;2326613;68;20166;-78
2021/09/22 14:11:29;;;;;;;0.76;0.50;;;;;;;20.98;44.39;100287.97;2326127;68;20155;-78
2021/09/22 14:14:32;;;;;;;0.84;0.56;;;;;;;20.89;44.46;100291.78;2325376;68;20187;-78
2021/09/22 14:17:35;;;;;;;1.06;0.59;;;;;;;20.81;45.00;100281.47;2323858;68;20684;-78
2021/09/22 14:20:40;;;;;;;0.49;0.40;;;;;;;20.75;44.85;100286.09;2325944;68;20166;-78
2021/09/22 14:23:43;;;;;;;1.01;0.60;;;;;;;20.72;45.31;100288.81;2326243;68;20163;-78
2021/09/22 14:26:46;;;;;;;0.99;0.60;;;;;;;20.66;45.45;100274.06;2325813;68;20162;-78
2021/09/22 14:29:48;;;;;;;1.02;0.51;;;;;;;20.60;45.20;100274.22;2325099;68;20603;-78
2021/09/22 14:32:52;;;;;;;4.20;0.68;;;;;;;20.50;44.89;100271.03;2324385;66;22427;-78
2021/09/22 14:35:54;;;;;;;1.40;0.57;;;;;;;20.46;45.71;100266.72;2326343;68;20893;-78
2021/09/22 14:39:01;;;;;;;2.67;0.70;;;;;;;20.47;45.99;100265.84;2326199;68;20139;-78
2021/09/22 14:42:04;;;;;;;3.03;0.56;;;;;;;20.45;45.94;100272.91;2325985;68;20184;-78
2021/09/22 14:45:09;;;;;;;1.45;0.60;;;;;;;20.49;46.38;100260.53;2324112;68;20146;-78
2021/09/22 14:48:12;;;;;;;0.76;0.59;;;;;;;20.58;46.51;100267.28;2326771;66;21774;-78
2021/09/22 14:51:15;;;;;;;1.99;0.56;;;;;;;20.62;46.09;100263.63;2326129;68;20155;-78
2021/09/22 14:54:17;;;;;;;0.81;0.52;;;;;;;20.62;46.03;100259.22;2326805;68;20274;-78
2021/09/22 14:57:21;;;;;;;0.79;0.59;;;;;;;20.64;46.23;100257.38;2327066;68;20147;-78
2021/09/22 15:00:28;;;;;;;2.34;0.60;;;;;;;20.70;46.51;100253.69;2322793;65;22340;-78
2021/09/22 15:03:31;;;;;;;2.72;0.68;;;;;;;20.80;46.03;100248.06;2325975;68;20327;-78
2021/09/22 15:06:34;;;;;;;1.41;0.60;;;;;;;20.83;45.55;100247.13;2326241;68;20167;-78
2021/09/22 15:09:38;;;;;;;2.70;0.70;;;;;;;20.90;46.12;100246.00;2326900;68;20154;-78
2021/09/22 15:12:41;;;;;;;1.02;0.60;;;;;;;20.93;45.71;100240.59;2325154;68;20171;-79
2021/09/22 15:15:44;;;;;;;0.98;0.60;;;;;;;20.98;45.99;100240.44;2324347;66;20459;-78
2021/09/22 15:18:46;;;;;;;0.71;0.71;;;;;;;20.99;46.08;100237.75;2325382;68;20169;-77
2021/09/22 15:21:49;;;;;;;5.03;0.59;;;;;;;20.98;45.74;100221.97;2326986;68;20155;-78
2021/09/22 15:24:52;;;;;;;1.85;0.50;;;;;;;21.02;46.35;100220.97;2327037;68;20259;-74
2021/09/22 15:27:55;;;;;;;2.64;0.60;;;;;;;20.94;43.66;100217.72;2325254;68;20176;-74
2021/09/22 15:30:59;;;;;;;5.01;0.50;;;;;;;20.69;44.54;100221.16;2325168;66;20883;-80
2021/09/22 15:34:03;;;;;;;2.17;0.57;;;;;;;20.40;45.00;100214.13;2329197;68;20265;-80
2021/09/22 15:37:06;;;;;;;4.70;0.60;;;;;;;20.54;47.30;100207.59;2322851;68;20172;-80
2021/09/22 15:40:12;;;;;;;0.77;0.50;;;;;;;20.69;46.37;100209.75;2327230;68;20143;-80
2021/09/22 15:43:14;;;;;;;1.34;0.57;;;;;;;20.80;46.55;100210.25;2324817;68;20151;-80
2021/09/22 15:46:17;;;;;;;1.91;0.50;;;;;;;20.84;46.83;100214.53;2327657;66;24492;-80
2021/09/22 15:49:20;;;;;;;1.74;0.69;;;;;;;20.83;47.79;100217.22;2330695;68;20155;-80
2021/09/22 15:52:23;;;;;;;1.76;0.60;;;;;;;20.71;48.39;100208.78;2330031;68;20147;-80
2021/09/22 15:55:26;;;;;;;2.34;0.84;;;;;;;20.64;49.56;100209.88;2329039;68;20280;-79
2021/09/22 15:58:28;;;;;;;1.35;0.55;;;;;;;20.70;50.75;100200.91;2327824;68;20718;-79
2021/09/22 16:01:31;;;;;;;1.08;0.60;;;;;;;20.75;51.74;100204.25;2324558;66;23415;-79
2021/09/22 16:04:35;;;;;;;1.75;0.60;;;;;;;20.82;50.42;100211.03;2328360;68;20613;-79
2021/09/22 16:07:38;;;;;;;1.55;0.70;;;;;;;20.76;53.25;100212.13;2328476;68;20160;-79
2021/09/22 16:10:41;;;;;;;6.11;0.84;;;;;;;20.67;53.35;100203.66;2329715;68;20168;-80
2021/09/22 16:13:44;;;;;;;61.49;3.28;;;;;;;20.51;55.40;100201.50;2330168;68;20308;-80
2021/09/22 16:16:54;;;;;;;73.60;3.03;;;;;;;20.33;55.19;100190.66;2327297;65;32832;-79
2021/09/22 16:20:21;;;;;;;37.80;1.56;;;;;;;20.15;57.07;100195.59;2334615;68;20162;-80
2021/09/22 16:23:26;;;;;;;28.33;1.83;;;;;;;19.97;58.04;100184.75;2330312;68;20179;-80
2021/09/22 16:26:29;;;;;;;63.51;2.58;;;;;;;19.76;57.53;100184.47;2331114;68;20210;-80
2021/09/22 16:29:32;;;;;;;13.26;0.90;;;;;;;19.50;58.12;100182.53;2332780;68;20282;-80
2021/09/22 16:32:37;;;;;;;5.35;1.04;;;;;;;19.10;60.23;100188.03;2330391;66;37329;-80
2021/09/22 16:35:40;;;;;;;4.10;0.80;;;;;;;18.78;61.46;100178.31;2329675;68;20180;-79
2021/09/22 16:38:42;;;;;;;5.19;1.10;;;;;;;18.49;62.87;100180.75;2328774;68;20155;-79
2021/09/22 16:41:47;;;;;;;8.34;0.86;;;;;;;18.29;63.79;100195.25;2332355;68;20175;-80
2021/09/22 16:44:50;;;;;;;5.64;0.70;;;;;;;18.05;64.27;100188.78;2329151;68;20151;-80
2021/09/22 16:47:53;;;;;;;3.55;0.57;;;;;;;17.83;65.22;100186.66;2329075;66;35299;-80
2021/09/22 16:50:56;;;;;;;0.68;0.68;;;;;;;17.65;65.85;100183.50;2335887;68;20159;-80
2021/09/22 16:54:00;;;;;;;1.71;0.56;;;;;;;17.41;66.77;100184.81;2336431;68;21026;-80
2021/09/22 16:57:21;;;;;;;1.35;0.80;;;;;;;17.20;67.41;100183.50;2334063;68;20165;-80
2021/09/22 17:00:44;;;;;;;2.81;0.80;;;;;;;17.08;68.10;100178.50;2327921;68;20346;-80
2021/09/22 17:04:25;;;;;;;1.16;0.56;;;;;;;16.88;69.09;100178.84;2324643;68;20225;-81
2021/09/22 17:08:00;;;;;;;1.91;0.70;;;;;;;16.66;69.59;100181.81;2330254;68;20573;-80
2021/09/22 17:11:24;;;;;;;3.99;0.84;;;;;;;16.47;69.97;100186.47;2302368;69;20145;-80
2021/09/22 17:14:45;;;;;;;0.90;0.61;;;;;;;16.24;70.75;100189.44;2304758;69;20185;-80
2021/09/22 17:18:52;;;;;;;0.86;0.60;;;;;;;16.08;71.11;100188.81;2295123;69;20909;-80
2021/09/22 17:22:47;;;;;;;1.04;0.74;;;;;;;15.84;71.98;100184.78;2298816;69;20271;-81
2021/09/22 17:26:30;;;;;;;2.17;0.80;;;;;;;15.67;72.48;100184.13;2297983;69;20306;-80
2021/09/22 17:30:22;;;;;;;5.18;0.77;;;;;;;15.54;72.84;100188.59;2292225;70;20190;-81
2021/09/22 17:34:02;;;;;;;4.00;0.60;;;;;;;15.32;73.71;100187.97;2289798;70;20172;-81
2021/09/22 17:38:00;;;;;;;0.91;0.60;;;;;;;15.18;73.96;100189.88;2279097;70;20152;-81
2021/09/22 17:41:33;;;;;;;1.52;0.85;;;;;;;15.04;74.42;100190.00;2276666;70;20172;-80
2021/09/22 17:44:36;;;;;;;2.17;0.68;;;;;;;14.89;74.91;100186.66;2279687;70;20182;-80
2021/09/22 17:47:39;;;;;;;2.44;0.60;;;;;;;14.80;75.43;100185.00;2283575;67;26403;-80
2021/09/22 17:50:47;;;;;;;3.28;0.80;;;;;;;14.67;75.74;100178.13;2303972;69;20154;-80
2021/09/22 17:53:51;;;;;;;2.61;1.29;;;;;;;14.56;76.16;100190.44;2303968;69;20194;-81
2021/09/22 17:58:57;;;;;;;3.00;0.50;;;;;;;14.48;76.71;100187.88;2078505;77;20174;-80
2021/09/22 18:02:02;;;;;;;3.29;0.70;;;;;;;14.30;77.19;100185.38;2052733;78;988839;-80
2021/09/22 18:05:12;;;;;;;1.26;0.81;;;;;;;14.09;77.73;100189.84;2060945;79;20164;-80
2021/09/22 18:08:42;;;;;;;3.54;0.70;;;;;;;13.96;77.95;100196.00;2056615;78;20216;-80
2021/09/22 18:16:36;;;;;;;1.17;0.60;;;;;;;13.93;77.89;100189.94;2036004;79;20314;-80
2021/09/22 18:20:53;;;;;;;1.35;0.80;;;;;;;13.85;78.05;100192.59;2021637;80;20354;-79
2021/09/22 18:25:05;;;;;;;1.05;0.70;;;;;;;13.73;78.40;100190.03;2025677;80;20196;-80